sensor_id;sensor_type;location;lat;lon;timestamp;P1;durP1;ratioP1;P2;durP2;ratioP2
44428;SDS011;30134;47.866;-4.222;2023-08-21T00:02:17;162.13;;;111.35;;
44428;SDS011;30134;47.866;-4.222;2023-08-21T00:04:43;149.20;;;103.68;;
44428;SDS011;30134;47.866;-4.222;2023-08-21T00:07:09;134.07;;;93.45;;
44428;SDS011;30134;47.866;-4.222;2023-08-21T00:09:36;120.95;;;82.40;;
44428;SDS011;30134;47.866;-4.222;2023-08-21T00:12:21;105.57;;;72.30;;
44428;SDS011;30134;47.866;-4.222;2023-08-21T00:14:46;99.30;;;68.15;;
44428;SDS011;30134;47.866;-4.222;2023-08-21T00:17:12;97.60;;;66.30;;
44428;SDS011;30134;47.866;-4.222;2023-08-21T00:19:39;92.38;;;62.72;;
44428;SDS011;30134;47.866;-4.222;2023-08-21T00:22:05;86.15;;;58.03;;
44428;SDS011;30134;47.866;-4.222;2023-08-21T00:24:31;85.20;;;56.25;;
44428;SDS011;30134;47.866;-4.222;2023-08-21T00:26:58;76.60;;;51.40;;
44428;SDS011;30134;47.866;-4.222;2023-08-21T00:29:43;74.55;;;51.00;;
44428;SDS011;30134;47.866;-4.222;2023-08-21T00:32:09;74.85;;;50.58;;
44428;SDS011;30134;47.866;-4.222;2023-08-21T00:34:37;69.22;;;47.15;;
44428;SDS011;30134;47.866;-4.222;2023-08-21T00:37:03;65.78;;;45.28;;
44428;SDS011;30134;47.866;-4.222;2023-08-21T00:39:29;63.85;;;43.65;;
44428;SDS011;30134;47.866;-4.222;2023-08-21T00:42:14;57.72;;;39.88;;
44428;SDS011;30134;47.866;-4.222;2023-08-21T00:44:40;58.88;;;40.22;;
44428;SDS011;30134;47.866;-4.222;2023-08-21T00:47:06;54.00;;;37.05;;
44428;SDS011;30134;47.866;-4.222;2023-08-21T00:49:33;49.10;;;34.35;;
44428;SDS011;30134;47.866;-4.222;2023-08-21T00:51:59;46.13;;;33.33;;
44428;SDS011;30134;47.866;-4.222;2023-08-21T00:54:26;44.35;;;31.67;;
44428;SDS011;30134;47.866;-4.222;2023-08-21T00:56:54;44.67;;;30.77;;
44428;SDS011;30134;47.866;-4.222;2023-08-21T00:59:21;42.13;;;28.88;;
44428;SDS011;30134;47.866;-4.222;2023-08-21T01:01:48;43.05;;;29.25;;
44428;SDS011;30134;47.866;-4.222;2023-08-21T01:04:14;38.72;;;27.75;;
44428;SDS011;30134;47.866;-4.222;2023-08-21T01:06:40;36.65;;;25.80;;
44428;SDS011;30134;47.866;-4.222;2023-08-21T01:12:27;30.27;;;22.52;;
44428;SDS011;30134;47.866;-4.222;2023-08-21T01:15:22;30.05;;;20.80;;
44428;SDS011;30134;47.866;-4.222;2023-08-21T01:17:49;27.67;;;20.60;;
44428;SDS011;30134;47.866;-4.222;2023-08-21T01:20:16;28.48;;;19.27;;
44428;SDS011;30134;47.866;-4.222;2023-08-21T01:22:42;26.38;;;18.63;;
44428;SDS011;30134;47.866;-4.222;2023-08-21T01:25:11;26.33;;;17.67;;
44428;SDS011;30134;47.866;-4.222;2023-08-21T01:27:40;23.05;;;16.88;;
44428;SDS011;30134;47.866;-4.222;2023-08-21T01:35:42;21.90;;;14.80;;
44428;SDS011;30134;47.866;-4.222;2023-08-21T01:38:08;255.07;;;161.10;;
44428;SDS011;30134;47.866;-4.222;2023-08-21T01:40:53;185.40;;;119.70;;
44428;SDS011;30134;47.866;-4.222;2023-08-21T01:43:19;214.18;;;144.15;;
44428;SDS011;30134;47.866;-4.222;2023-08-21T01:45:51;212.73;;;139.18;;
44428;SDS011;30134;47.866;-4.222;2023-08-21T01:48:36;206.40;;;137.70;;
44428;SDS011;30134;47.866;-4.222;2023-08-21T01:51:20;193.77;;;128.85;;
44428;SDS011;30134;47.866;-4.222;2023-08-21T01:53:46;169.18;;;114.55;;
44428;SDS011;30134;47.866;-4.222;2023-08-21T01:56:30;157.48;;;108.07;;
44428;SDS011;30134;47.866;-4.222;2023-08-21T01:58:57;151.38;;;102.00;;
44428;SDS011;30134;47.866;-4.222;2023-08-21T02:01:23;144.32;;;95.80;;
44428;SDS011;30134;47.866;-4.222;2023-08-21T02:03:49;131.13;;;90.38;;
44428;SDS011;30134;47.866;-4.222;2023-08-21T02:06:36;123.22;;;81.70;;
44428;SDS011;30134;47.866;-4.222;2023-08-21T02:09:02;123.25;;;81.90;;
44428;SDS011;30134;47.866;-4.222;2023-08-21T02:11:47;115.50;;;77.43;;
44428;SDS011;30134;47.866;-4.222;2023-08-21T02:14:13;106.93;;;73.07;;
44428;SDS011;30134;47.866;-4.222;2023-08-21T02:16:39;99.13;;;66.93;;
44428;SDS011;30134;47.866;-4.222;2023-08-21T02:19:06;99.22;;;67.75;;
44428;SDS011;30134;47.866;-4.222;2023-08-21T02:21:34;91.68;;;63.20;;
44428;SDS011;30134;47.866;-4.222;2023-08-21T02:24:01;89.10;;;60.92;;
44428;SDS011;30134;47.866;-4.222;2023-08-21T02:26:28;79.38;;;53.47;;
44428;SDS011;30134;47.866;-4.222;2023-08-21T02:28:54;76.32;;;53.35;;
44428;SDS011;30134;47.866;-4.222;2023-08-21T02:31:20;79.10;;;53.00;;
44428;SDS011;30134;47.866;-4.222;2023-08-21T02:34:23;70.78;;;48.22;;
44428;SDS011;30134;47.866;-4.222;2023-08-21T02:36:50;66.03;;;46.65;;
44428;SDS011;30134;47.866;-4.222;2023-08-21T02:42:01;60.75;;;42.25;;
44428;SDS011;30134;47.866;-4.222;2023-08-21T02:44:27;60.70;;;38.72;;
44428;SDS011;30134;47.866;-4.222;2023-08-21T02:46:53;56.17;;;39.65;;
44428;SDS011;30134;47.866;-4.222;2023-08-21T02:49:38;51.10;;;35.65;;
44428;SDS011;30134;47.866;-4.222;2023-08-21T02:52:04;45.95;;;33.13;;
44428;SDS011;30134;47.866;-4.222;2023-08-21T02:54:30;45.90;;;32.05;;
44428;SDS011;30134;47.866;-4.222;2023-08-21T02:56:57;44.63;;;31.25;;
44428;SDS011;30134;47.866;-4.222;2023-08-21T02:59:23;35.35;;;23.23;;
44428;SDS011;30134;47.866;-4.222;2023-08-21T03:01:49;35.83;;;23.63;;
44428;SDS011;30134;47.866;-4.222;2023-08-21T03:07:00;50.63;;;34.63;;
44428;SDS011;30134;47.866;-4.222;2023-08-21T03:09:27;51.55;;;36.08;;
44428;SDS011;30134;47.866;-4.222;2023-08-21T03:14:39;46.95;;;31.67;;
44428;SDS011;30134;47.866;-4.222;2023-08-21T03:17:06;44.00;;;30.83;;
44428;SDS011;30134;47.866;-4.222;2023-08-21T03:19:32;43.42;;;30.60;;
44428;SDS011;30134;47.866;-4.222;2023-08-21T03:21:58;40.40;;;27.83;;
44428;SDS011;30134;47.866;-4.222;2023-08-21T03:24:43;34.72;;;26.35;;
44428;SDS011;30134;47.866;-4.222;2023-08-21T03:27:09;36.30;;;26.27;;
44428;SDS011;30134;47.866;-4.222;2023-08-21T03:29:54;35.92;;;26.05;;
44428;SDS011;30134;47.866;-4.222;2023-08-21T03:32:21;34.67;;;23.63;;
44428;SDS011;30134;47.866;-4.222;2023-08-21T03:34:47;32.35;;;22.13;;
44428;SDS011;30134;47.866;-4.222;2023-08-21T03:37:14;31.27;;;22.35;;
44428;SDS011;30134;47.866;-4.222;2023-08-21T03:39:40;28.05;;;20.35;;
44428;SDS011;30134;47.866;-4.222;2023-08-21T03:42:07;27.23;;;20.00;;
44428;SDS011;30134;47.866;-4.222;2023-08-21T03:44:33;27.25;;;17.38;;
44428;SDS011;30134;47.866;-4.222;2023-08-21T03:47:00;22.80;;;17.30;;
44428;SDS011;30134;47.866;-4.222;2023-08-21T03:55:16;19.27;;;14.35;;
44428;SDS011;30134;47.866;-4.222;2023-08-21T03:57:48;18.05;;;13.90;;
44428;SDS011;30134;47.866;-4.222;2023-08-21T04:00:14;17.20;;;13.15;;
44428;SDS011;30134;47.866;-4.222;2023-08-21T04:02:41;15.40;;;12.15;;
44428;SDS011;30134;47.866;-4.222;2023-08-21T04:05:08;16.45;;;11.70;;
44428;SDS011;30134;47.866;-4.222;2023-08-21T04:07:36;13.43;;;10.77;;
44428;SDS011;30134;47.866;-4.222;2023-08-21T04:10:03;14.80;;;10.65;;
44428;SDS011;30134;47.866;-4.222;2023-08-21T04:15:34;13.50;;;10.20;;
44428;SDS011;30134;47.866;-4.222;2023-08-21T04:18:00;15.25;;;9.57;;
44428;SDS011;30134;47.866;-4.222;2023-08-21T04:20:27;11.82;;;9.48;;
44428;SDS011;30134;47.866;-4.222;2023-08-21T04:23:11;11.98;;;8.77;;
44428;SDS011;30134;47.866;-4.222;2023-08-21T04:28:41;9.85;;;7.43;;
44428;SDS011;30134;47.866;-4.222;2023-08-21T04:31:07;10.55;;;7.30;;
44428;SDS011;30134;47.866;-4.222;2023-08-21T04:36:18;7.70;;;6.28;;
44428;SDS011;30134;47.866;-4.222;2023-08-21T04:38:44;8.02;;;6.05;;
44428;SDS011;30134;47.866;-4.222;2023-08-21T04:41:10;7.25;;;5.15;;
44428;SDS011;30134;47.866;-4.222;2023-08-21T04:43:36;7.88;;;5.00;;
44428;SDS011;30134;47.866;-4.222;2023-08-21T04:46:03;7.13;;;4.40;;
44428;SDS011;30134;47.866;-4.222;2023-08-21T04:48:30;8.43;;;5.18;;
44428;SDS011;30134;47.866;-4.222;2023-08-21T04:50:56;6.22;;;4.43;;
44428;SDS011;30134;47.866;-4.222;2023-08-21T04:53:41;6.38;;;4.10;;
44428;SDS011;30134;47.866;-4.222;2023-08-21T04:56:07;5.35;;;3.80;;
44428;SDS011;30134;47.866;-4.222;2023-08-21T04:58:33;4.57;;;3.50;;
44428;SDS011;30134;47.866;-4.222;2023-08-21T05:04:02;4.82;;;3.70;;
44428;SDS011;30134;47.866;-4.222;2023-08-21T05:06:28;5.03;;;3.60;;
44428;SDS011;30134;47.866;-4.222;2023-08-21T05:08:54;5.43;;;3.50;;
44428;SDS011;30134;47.866;-4.222;2023-08-21T05:11:20;4.03;;;2.90;;
44428;SDS011;30134;47.866;-4.222;2023-08-21T05:13:46;4.68;;;3.10;;
44428;SDS011;30134;47.866;-4.222;2023-08-21T05:19:16;4.10;;;2.67;;
44428;SDS011;30134;47.866;-4.222;2023-08-21T05:21:43;5.63;;;2.75;;
44428;SDS011;30134;47.866;-4.222;2023-08-21T05:26:56;3.75;;;2.60;;
44428;SDS011;30134;47.866;-4.222;2023-08-21T05:29:40;4.50;;;2.72;;
44428;SDS011;30134;47.866;-4.222;2023-08-21T05:32:06;2.90;;;2.42;;
44428;SDS011;30134;47.866;-4.222;2023-08-21T05:37:17;2.92;;;2.13;;
44428;SDS011;30134;47.866;-4.222;2023-08-21T05:39:43;2.50;;;1.95;;
44428;SDS011;30134;47.866;-4.222;2023-08-21T05:42:09;2.67;;;2.00;;
44428;SDS011;30134;47.866;-4.222;2023-08-21T05:44:36;2.55;;;1.98;;
44428;SDS011;30134;47.866;-4.222;2023-08-21T05:47:02;4.07;;;1.77;;
44428;SDS011;30134;47.866;-4.222;2023-08-21T05:49:47;12.50;;;8.23;;
44428;SDS011;30134;47.866;-4.222;2023-08-21T05:52:13;62.83;;;38.60;;
44428;SDS011;30134;47.866;-4.222;2023-08-21T05:55:19;63.75;;;43.00;;
44428;SDS011;30134;47.866;-4.222;2023-08-21T05:58:03;41.00;;;28.80;;
44428;SDS011;30134;47.866;-4.222;2023-08-21T06:00:29;34.97;;;24.60;;
44428;SDS011;30134;47.866;-4.222;2023-08-21T06:02:55;31.98;;;21.15;;
44428;SDS011;30134;47.866;-4.222;2023-08-21T06:05:22;30.95;;;20.70;;
44428;SDS011;30134;47.866;-4.222;2023-08-21T06:07:48;25.77;;;18.88;;
44428;SDS011;30134;47.866;-4.222;2023-08-21T06:10:34;26.60;;;19.05;;
44428;SDS011;30134;47.866;-4.222;2023-08-21T06:13:18;26.52;;;17.58;;
44428;SDS011;30134;47.866;-4.222;2023-08-21T06:16:03;23.98;;;16.70;;
44428;SDS011;30134;47.866;-4.222;2023-08-21T06:18:29;21.90;;;15.98;;
44428;SDS011;30134;47.866;-4.222;2023-08-21T06:20:55;20.02;;;14.80;;
44428;SDS011;30134;47.866;-4.222;2023-08-21T06:23:39;18.48;;;13.35;;
44428;SDS011;30134;47.866;-4.222;2023-08-21T06:26:05;18.50;;;13.40;;
44428;SDS011;30134;47.866;-4.222;2023-08-21T06:28:32;16.10;;;12.18;;
44428;SDS011;30134;47.866;-4.222;2023-08-21T06:30:58;16.13;;;12.30;;
44428;SDS011;30134;47.866;-4.222;2023-08-21T06:33:42;15.20;;;10.93;;
44428;SDS011;30134;47.866;-4.222;2023-08-21T06:36:09;16.77;;;11.05;;
44428;SDS011;30134;47.866;-4.222;2023-08-21T06:38:37;13.98;;;10.45;;
44428;SDS011;30134;47.866;-4.222;2023-08-21T06:41:03;14.45;;;10.38;;
44428;SDS011;30134;47.866;-4.222;2023-08-21T06:43:29;12.35;;;9.30;;
44428;SDS011;30134;47.866;-4.222;2023-08-21T06:45:55;12.52;;;9.48;;
44428;SDS011;30134;47.866;-4.222;2023-08-21T06:48:21;10.95;;;9.02;;
44428;SDS011;30134;47.866;-4.222;2023-08-21T06:50:48;11.85;;;8.55;;
44428;SDS011;30134;47.866;-4.222;2023-08-21T06:55:59;11.50;;;7.22;;
44428;SDS011;30134;47.866;-4.222;2023-08-21T06:58:25;9.30;;;7.18;;
44428;SDS011;30134;47.866;-4.222;2023-08-21T07:00:53;9.07;;;7.22;;
44428;SDS011;30134;47.866;-4.222;2023-08-21T07:03:38;8.98;;;6.63;;
44428;SDS011;30134;47.866;-4.222;2023-08-21T07:06:04;7.80;;;6.30;;
44428;SDS011;30134;47.866;-4.222;2023-08-21T07:08:30;7.97;;;5.93;;
44428;SDS011;30134;47.866;-4.222;2023-08-21T07:11:14;7.40;;;5.90;;
44428;SDS011;30134;47.866;-4.222;2023-08-21T07:13:42;7.05;;;5.78;;
44428;SDS011;30134;47.866;-4.222;2023-08-21T07:16:28;8.20;;;5.28;;
44428;SDS011;30134;47.866;-4.222;2023-08-21T07:18:54;8.10;;;5.57;;
44428;SDS011;30134;47.866;-4.222;2023-08-21T07:21:39;6.18;;;4.90;;
44428;SDS011;30134;47.866;-4.222;2023-08-21T07:24:05;6.82;;;5.03;;
44428;SDS011;30134;47.866;-4.222;2023-08-21T07:29:16;5.15;;;4.30;;
44428;SDS011;30134;47.866;-4.222;2023-08-21T07:31:42;5.13;;;4.07;;
44428;SDS011;30134;47.866;-4.222;2023-08-21T07:34:08;5.47;;;4.38;;
44428;SDS011;30134;47.866;-4.222;2023-08-21T07:36:34;5.47;;;4.07;;
44428;SDS011;30134;47.866;-4.222;2023-08-21T07:39:00;4.63;;;3.50;;
44428;SDS011;30134;47.866;-4.222;2023-08-21T07:41:26;4.40;;;3.70;;
44428;SDS011;30134;47.866;-4.222;2023-08-21T07:43:52;4.85;;;3.92;;
44428;SDS011;30134;47.866;-4.222;2023-08-21T07:47:15;4.03;;;3.33;;
44428;SDS011;30134;47.866;-4.222;2023-08-21T07:49:42;4.85;;;3.60;;
44428;SDS011;30134;47.866;-4.222;2023-08-21T07:52:08;4.43;;;3.30;;
44428;SDS011;30134;47.866;-4.222;2023-08-21T07:54:53;3.65;;;3.00;;
44428;SDS011;30134;47.866;-4.222;2023-08-21T07:57:38;4.50;;;3.20;;
44428;SDS011;30134;47.866;-4.222;2023-08-21T08:00:04;4.10;;;3.00;;
44428;SDS011;30134;47.866;-4.222;2023-08-21T08:02:33;3.92;;;2.80;;
44428;SDS011;30134;47.866;-4.222;2023-08-21T08:04:59;3.60;;;2.63;;
44428;SDS011;30134;47.866;-4.222;2023-08-21T08:07:26;3.17;;;2.60;;
44428;SDS011;30134;47.866;-4.222;2023-08-21T08:09:52;2.60;;;2.33;;
44428;SDS011;30134;47.866;-4.222;2023-08-21T08:12:19;3.95;;;2.60;;
44428;SDS011;30134;47.866;-4.222;2023-08-21T08:14:45;3.25;;;2.70;;
44428;SDS011;30134;47.866;-4.222;2023-08-21T08:17:11;2.90;;;2.22;;
44428;SDS011;30134;47.866;-4.222;2023-08-21T08:19:37;2.50;;;2.20;;
44428;SDS011;30134;47.866;-4.222;2023-08-21T08:22:04;3.28;;;2.38;;
44428;SDS011;30134;47.866;-4.222;2023-08-21T08:24:30;2.70;;;1.90;;
44428;SDS011;30134;47.866;-4.222;2023-08-21T08:26:57;2.40;;;2.10;;
44428;SDS011;30134;47.866;-4.222;2023-08-21T08:32:11;1.98;;;1.63;;
44428;SDS011;30134;47.866;-4.222;2023-08-21T08:34:37;2.75;;;1.80;;
44428;SDS011;30134;47.866;-4.222;2023-08-21T08:37:04;2.10;;;1.83;;
44428;SDS011;30134;47.866;-4.222;2023-08-21T08:39:30;3.78;;;2.40;;
44428;SDS011;30134;47.866;-4.222;2023-08-21T08:41:57;2.45;;;1.88;;
44428;SDS011;30134;47.866;-4.222;2023-08-21T08:44:28;2.35;;;1.60;;
44428;SDS011;30134;47.866;-4.222;2023-08-21T08:47:14;2.15;;;1.90;;
44428;SDS011;30134;47.866;-4.222;2023-08-21T08:49:42;2.10;;;1.55;;
44428;SDS011;30134;47.866;-4.222;2023-08-21T08:52:09;2.45;;;1.58;;
44428;SDS011;30134;47.866;-4.222;2023-08-21T08:54:36;2.90;;;1.27;;
44428;SDS011;30134;47.866;-4.222;2023-08-21T08:57:21;1.67;;;1.30;;
44428;SDS011;30134;47.866;-4.222;2023-08-21T08:59:48;2.00;;;1.30;;
44428;SDS011;30134;47.866;-4.222;2023-08-21T09:02:14;2.25;;;1.30;;
44428;SDS011;30134;47.866;-4.222;2023-08-21T09:04:41;1.70;;;1.40;;
44428;SDS011;30134;47.866;-4.222;2023-08-21T09:07:08;1.80;;;1.40;;
44428;SDS011;30134;47.866;-4.222;2023-08-21T09:09:39;1.98;;;1.27;;
44428;SDS011;30134;47.866;-4.222;2023-08-21T09:12:24;1.52;;;1.20;;
44428;SDS011;30134;47.866;-4.222;2023-08-21T09:14:50;1.90;;;1.30;;
44428;SDS011;30134;47.866;-4.222;2023-08-21T09:17:16;1.40;;;1.30;;
44428;SDS011;30134;47.866;-4.222;2023-08-21T09:19:43;2.00;;;1.20;;
44428;SDS011;30134;47.866;-4.222;2023-08-21T09:22:16;2.05;;;1.30;;
44428;SDS011;30134;47.866;-4.222;2023-08-21T09:25:05;1.45;;;1.20;;
44428;SDS011;30134;47.866;-4.222;2023-08-21T09:27:51;1.75;;;1.20;;
44428;SDS011;30134;47.866;-4.222;2023-08-21T09:30:20;2.15;;;1.30;;
44428;SDS011;30134;47.866;-4.222;2023-08-21T09:35:33;2.50;;;1.17;;
44428;SDS011;30134;47.866;-4.222;2023-08-21T09:38:00;2.80;;;1.27;;
44428;SDS011;30134;47.866;-4.222;2023-08-21T09:40:51;1.98;;;1.23;;
44428;SDS011;30134;47.866;-4.222;2023-08-21T09:43:40;1.55;;;1.02;;
44428;SDS011;30134;47.866;-4.222;2023-08-21T09:46:26;1.88;;;1.20;;
44428;SDS011;30134;47.866;-4.222;2023-08-21T09:54:45;1.67;;;1.10;;
44428;SDS011;30134;47.866;-4.222;2023-08-21T09:57:12;2.05;;;1.40;;
44428;SDS011;30134;47.866;-4.222;2023-08-21T09:59:39;2.80;;;1.25;;
44428;SDS011;30134;47.866;-4.222;2023-08-21T10:02:07;2.03;;;1.15;;
44428;SDS011;30134;47.866;-4.222;2023-08-21T10:04:53;1.30;;;1.00;;
44428;SDS011;30134;47.866;-4.222;2023-08-21T10:07:21;1.23;;;0.80;;
44428;SDS011;30134;47.866;-4.222;2023-08-21T10:09:52;1.77;;;1.05;;
44428;SDS011;30134;47.866;-4.222;2023-08-21T10:12:20;1.95;;;1.05;;
44428;SDS011;30134;47.866;-4.222;2023-08-21T10:15:06;1.30;;;1.10;;
44428;SDS011;30134;47.866;-4.222;2023-08-21T10:17:51;2.03;;;1.02;;
44428;SDS011;30134;47.866;-4.222;2023-08-21T10:20:20;1.10;;;1.00;;
44428;SDS011;30134;47.866;-4.222;2023-08-21T10:22:54;1.77;;;1.13;;
44428;SDS011;30134;47.866;-4.222;2023-08-21T10:25:26;1.92;;;0.93;;
44428;SDS011;30134;47.866;-4.222;2023-08-21T10:27:53;1.60;;;1.17;;
44428;SDS011;30134;47.866;-4.222;2023-08-21T10:33:05;1.60;;;0.90;;
44428;SDS011;30134;47.866;-4.222;2023-08-21T10:35:32;1.73;;;0.93;;
44428;SDS011;30134;47.866;-4.222;2023-08-21T10:38:06;1.23;;;0.85;;
44428;SDS011;30134;47.866;-4.222;2023-08-21T10:40:36;1.30;;;1.10;;
44428;SDS011;30134;47.866;-4.222;2023-08-21T10:46:09;1.23;;;0.88;;
44428;SDS011;30134;47.866;-4.222;2023-08-21T10:48:36;1.55;;;0.85;;
44428;SDS011;30134;47.866;-4.222;2023-08-21T10:51:29;1.60;;;0.77;;
44428;SDS011;30134;47.866;-4.222;2023-08-21T10:54:10;87.03;;;57.95;;
44428;SDS011;30134;47.866;-4.222;2023-08-21T10:56:38;33.42;;;18.92;;
44428;SDS011;30134;47.866;-4.222;2023-08-21T10:59:04;17.85;;;10.90;;
44428;SDS011;30134;47.866;-4.222;2023-08-21T11:01:51;16.90;;;6.88;;
44428;SDS011;30134;47.866;-4.222;2023-08-21T11:04:41;16.77;;;9.82;;
44428;SDS011;30134;47.866;-4.222;2023-08-21T11:07:09;8.65;;;5.43;;
44428;SDS011;30134;47.866;-4.222;2023-08-21T11:09:54;6.40;;;3.10;;
44428;SDS011;30134;47.866;-4.222;2023-08-21T11:12:21;7.20;;;3.20;;
44428;SDS011;30134;47.866;-4.222;2023-08-21T11:14:48;5.63;;;3.10;;
44428;SDS011;30134;47.866;-4.222;2023-08-21T11:17:33;7.13;;;3.85;;
44428;SDS011;30134;47.866;-4.222;2023-08-21T11:20:00;7.07;;;3.50;;
44428;SDS011;30134;47.866;-4.222;2023-08-21T11:22:45;6.95;;;3.58;;
44428;SDS011;30134;47.866;-4.222;2023-08-21T11:25:13;6.18;;;3.15;;
44428;SDS011;30134;47.866;-4.222;2023-08-21T11:27:41;4.70;;;2.50;;
44428;SDS011;30134;47.866;-4.222;2023-08-21T11:30:10;5.88;;;2.50;;
44428;SDS011;30134;47.866;-4.222;2023-08-21T11:32:38;7.10;;;2.53;;
44428;SDS011;30134;47.866;-4.222;2023-08-21T11:35:04;5.50;;;2.42;;
44428;SDS011;30134;47.866;-4.222;2023-08-21T11:37:49;4.40;;;2.30;;
44428;SDS011;30134;47.866;-4.222;2023-08-21T11:40:16;5.15;;;2.00;;
44428;SDS011;30134;47.866;-4.222;2023-08-21T11:43:01;7.05;;;1.80;;
44428;SDS011;30134;47.866;-4.222;2023-08-21T11:50:44;8.18;;;2.03;;
44428;SDS011;30134;47.866;-4.222;2023-08-21T11:53:12;7.63;;;1.60;;
44428;SDS011;30134;47.866;-4.222;2023-08-21T11:55:38;7.25;;;1.52;;
44428;SDS011;30134;47.866;-4.222;2023-08-21T12:00:53;6.10;;;1.63;;
44428;SDS011;30134;47.866;-4.222;2023-08-21T12:03:20;7.88;;;2.15;;
44428;SDS011;30134;47.866;-4.222;2023-08-21T12:05:46;8.07;;;1.80;;
44428;SDS011;30134;47.866;-4.222;2023-08-21T12:08:11;8.52;;;2.10;;
44428;SDS011;30134;47.866;-4.222;2023-08-21T12:10:37;10.20;;;2.25;;
44428;SDS011;30134;47.866;-4.222;2023-08-21T12:13:04;10.23;;;1.98;;
44428;SDS011;30134;47.866;-4.222;2023-08-21T12:15:30;10.40;;;2.28;;
44428;SDS011;30134;47.866;-4.222;2023-08-21T12:20:43;7.63;;;2.00;;
44428;SDS011;30134;47.866;-4.222;2023-08-21T12:23:09;11.15;;;2.15;;
44428;SDS011;30134;47.866;-4.222;2023-08-21T12:25:36;11.13;;;2.78;;
44428;SDS011;30134;47.866;-4.222;2023-08-21T12:28:02;10.70;;;1.83;;
44428;SDS011;30134;47.866;-4.222;2023-08-21T12:30:49;8.43;;;2.10;;
44428;SDS011;30134;47.866;-4.222;2023-08-21T12:33:16;10.90;;;2.03;;
44428;SDS011;30134;47.866;-4.222;2023-08-21T12:35:42;9.60;;;2.17;;
44428;SDS011;30134;47.866;-4.222;2023-08-21T12:38:12;8.85;;;2.45;;
44428;SDS011;30134;47.866;-4.222;2023-08-21T12:40:41;8.82;;;2.20;;
44428;SDS011;30134;47.866;-4.222;2023-08-21T12:43:07;16.65;;;2.08;;
44428;SDS011;30134;47.866;-4.222;2023-08-21T12:45:33;10.55;;;2.08;;
44428;SDS011;30134;47.866;-4.222;2023-08-21T12:48:01;7.88;;;2.20;;
44428;SDS011;30134;47.866;-4.222;2023-08-21T12:50:45;13.82;;;2.88;;
44428;SDS011;30134;47.866;-4.222;2023-08-21T12:53:12;7.85;;;1.98;;
44428;SDS011;30134;47.866;-4.222;2023-08-21T12:55:38;12.60;;;2.13;;
44428;SDS011;30134;47.866;-4.222;2023-08-21T12:58:04;6.53;;;1.88;;
44428;SDS011;30134;47.866;-4.222;2023-08-21T13:00:31;15.45;;;2.08;;
44428;SDS011;30134;47.866;-4.222;2023-08-21T13:03:00;8.98;;;2.38;;
44428;SDS011;30134;47.866;-4.222;2023-08-21T13:05:26;8.68;;;2.22;;
44428;SDS011;30134;47.866;-4.222;2023-08-21T13:07:52;6.35;;;2.10;;
44428;SDS011;30134;47.866;-4.222;2023-08-21T13:10:19;9.93;;;2.15;;
44428;SDS011;30134;47.866;-4.222;2023-08-21T13:13:03;8.20;;;1.95;;
44428;SDS011;30134;47.866;-4.222;2023-08-21T13:15:48;9.30;;;2.33;;
44428;SDS011;30134;47.866;-4.222;2023-08-21T13:18:15;8.73;;;1.90;;
44428;SDS011;30134;47.866;-4.222;2023-08-21T13:20:42;6.97;;;1.67;;
44428;SDS011;30134;47.866;-4.222;2023-08-21T13:23:08;12.50;;;1.75;;
44428;SDS011;30134;47.866;-4.222;2023-08-21T13:25:34;14.77;;;2.35;;
44428;SDS011;30134;47.866;-4.222;2023-08-21T13:28:01;9.38;;;1.90;;
44428;SDS011;30134;47.866;-4.222;2023-08-21T13:30:46;11.93;;;2.35;;
44428;SDS011;30134;47.866;-4.222;2023-08-21T13:33:13;6.45;;;1.67;;
44428;SDS011;30134;47.866;-4.222;2023-08-21T13:35:40;7.38;;;1.63;;
44428;SDS011;30134;47.866;-4.222;2023-08-21T13:38:06;8.93;;;1.90;;
44428;SDS011;30134;47.866;-4.222;2023-08-21T13:40:33;9.43;;;1.75;;
44428;SDS011;30134;47.866;-4.222;2023-08-21T13:43:00;10.05;;;2.08;;
44428;SDS011;30134;47.866;-4.222;2023-08-21T13:45:26;9.50;;;1.95;;
44428;SDS011;30134;47.866;-4.222;2023-08-21T13:47:52;5.15;;;1.50;;
44428;SDS011;30134;47.866;-4.222;2023-08-21T13:50:19;6.93;;;1.83;;
44428;SDS011;30134;47.866;-4.222;2023-08-21T13:52:46;11.68;;;2.42;;
44428;SDS011;30134;47.866;-4.222;2023-08-21T13:55:13;8.25;;;1.60;;
44428;SDS011;30134;47.866;-4.222;2023-08-21T13:57:40;5.60;;;1.67;;
44428;SDS011;30134;47.866;-4.222;2023-08-21T14:00:07;10.00;;;2.17;;
44428;SDS011;30134;47.866;-4.222;2023-08-21T14:05:41;6.15;;;1.80;;
44428;SDS011;30134;47.866;-4.222;2023-08-21T14:08:07;11.82;;;3.20;;
44428;SDS011;30134;47.866;-4.222;2023-08-21T14:13:19;5.63;;;1.63;;
44428;SDS011;30134;47.866;-4.222;2023-08-21T14:15:46;5.50;;;1.70;;
44428;SDS011;30134;47.866;-4.222;2023-08-21T14:18:12;7.28;;;1.52;;
44428;SDS011;30134;47.866;-4.222;2023-08-21T14:20:39;6.82;;;1.52;;
44428;SDS011;30134;47.866;-4.222;2023-08-21T14:28:35;13.63;;;2.00;;
44428;SDS011;30134;47.866;-4.222;2023-08-21T14:31:20;7.10;;;1.58;;
44428;SDS011;30134;47.866;-4.222;2023-08-21T14:33:46;9.18;;;1.88;;
44428;SDS011;30134;47.866;-4.222;2023-08-21T14:38:58;6.85;;;1.55;;
44428;SDS011;30134;47.866;-4.222;2023-08-21T14:44:10;11.75;;;1.80;;
44428;SDS011;30134;47.866;-4.222;2023-08-21T14:46:55;6.03;;;1.23;;
44428;SDS011;30134;47.866;-4.222;2023-08-21T14:49:22;7.72;;;2.20;;
44428;SDS011;30134;47.866;-4.222;2023-08-21T14:51:48;4.93;;;1.30;;
44428;SDS011;30134;47.866;-4.222;2023-08-21T14:54:15;6.43;;;1.80;;
44428;SDS011;30134;47.866;-4.222;2023-08-21T14:56:41;7.85;;;1.77;;
44428;SDS011;30134;47.866;-4.222;2023-08-21T14:59:07;6.75;;;1.40;;
44428;SDS011;30134;47.866;-4.222;2023-08-21T15:01:38;6.00;;;1.67;;
44428;SDS011;30134;47.866;-4.222;2023-08-21T15:04:06;5.70;;;1.25;;
44428;SDS011;30134;47.866;-4.222;2023-08-21T15:06:33;7.40;;;1.40;;
44428;SDS011;30134;47.866;-4.222;2023-08-21T15:09:00;9.63;;;1.63;;
44428;SDS011;30134;47.866;-4.222;2023-08-21T15:11:26;7.47;;;1.50;;
44428;SDS011;30134;47.866;-4.222;2023-08-21T15:14:12;7.30;;;1.50;;
44428;SDS011;30134;47.866;-4.222;2023-08-21T15:16:57;5.65;;;1.58;;
44428;SDS011;30134;47.866;-4.222;2023-08-21T15:19:23;9.10;;;1.88;;
44428;SDS011;30134;47.866;-4.222;2023-08-21T15:21:49;8.55;;;2.35;;
44428;SDS011;30134;47.866;-4.222;2023-08-21T15:24:16;8.95;;;1.83;;
44428;SDS011;30134;47.866;-4.222;2023-08-21T15:26:43;5.88;;;1.70;;
44428;SDS011;30134;47.866;-4.222;2023-08-21T15:29:09;4.72;;;1.40;;
44428;SDS011;30134;47.866;-4.222;2023-08-21T15:31:36;8.95;;;1.60;;
44428;SDS011;30134;47.866;-4.222;2023-08-21T15:34:02;6.93;;;1.17;;
44428;SDS011;30134;47.866;-4.222;2023-08-21T15:36:46;5.68;;;1.30;;
44428;SDS011;30134;47.866;-4.222;2023-08-21T15:39:31;7.10;;;1.63;;
44428;SDS011;30134;47.866;-4.222;2023-08-21T15:41:57;6.72;;;1.42;;
44428;SDS011;30134;47.866;-4.222;2023-08-21T15:44:23;6.20;;;1.60;;
44428;SDS011;30134;47.866;-4.222;2023-08-21T15:46:49;7.22;;;1.40;;
44428;SDS011;30134;47.866;-4.222;2023-08-21T15:49:15;6.50;;;1.33;;
44428;SDS011;30134;47.866;-4.222;2023-08-21T15:51:44;6.25;;;1.45;;
44428;SDS011;30134;47.866;-4.222;2023-08-21T15:54:10;6.70;;;1.45;;
44428;SDS011;30134;47.866;-4.222;2023-08-21T15:56:54;8.98;;;1.70;;
44428;SDS011;30134;47.866;-4.222;2023-08-21T15:59:21;68.88;;;38.85;;
44428;SDS011;30134;47.866;-4.222;2023-08-21T16:01:47;119.72;;;73.95;;
44428;SDS011;30134;47.866;-4.222;2023-08-21T16:04:13;117.03;;;75.22;;
44428;SDS011;30134;47.866;-4.222;2023-08-21T16:06:39;125.57;;;82.93;;
44428;SDS011;30134;47.866;-4.222;2023-08-21T16:09:05;121.00;;;84.05;;
44428;SDS011;30134;47.866;-4.222;2023-08-21T16:11:33;107.75;;;72.75;;
44428;SDS011;30134;47.866;-4.222;2023-08-21T16:14:00;109.78;;;75.40;;
44428;SDS011;30134;47.866;-4.222;2023-08-21T16:16:29;103.70;;;70.40;;